Terminal Aerodrome Forecast
Issued by NWS Charleston, SC

Home | Current Version | Previous Version | Text Only | Print | Product List | Glossary On
Versions: 1 2 3 4 5 6 7 8 9 10 11 12 13 14 15 16 17 18 19 20 21 22 23 24 25
000
FTUS42 KCHS 301153
TAFSAV
TAF
KSAV 301153Z 3012/3112 06005KT P6SM VCSH SCT015 BKN035
     FM301400 10011KT 6SM -SHRA SCT015 BKN030 OVC080
      TEMPO 3016/3020 2SM +SHRA SCT008 BKN025
     FM302300 12008KT P6SM VCSH SCT015 BKN200=

USA.gov is the U.S. government's official web portal to all federal, state and local government web resources and services.